createdAt,value
2022-11-23T00:00:12.237Z,6.25
2022-11-23T00:02:39.323Z,5.75
2022-11-23T00:05:07.823Z,6.00
2022-11-23T00:07:34.847Z,6.75
2022-11-23T00:10:01.685Z,4.25
2022-11-23T00:12:28.712Z,6.25
2022-11-23T00:14:55.448Z,6.75
2022-11-23T00:17:23.618Z,9.75
2022-11-23T00:19:50.692Z,12.50
2022-11-23T00:22:17.595Z,10.75
2022-11-23T00:24:44.727Z,10.25
2022-11-23T00:27:11.609Z,10.25
2022-11-23T00:29:38.613Z,9.50
2022-11-23T00:32:05.894Z,5.75
2022-11-23T00:34:37.810Z,6.75
2022-11-23T00:37:05.208Z,6.50
2022-11-23T00:39:32.333Z,2.75
2022-11-23T00:41:59.631Z,5.75
2022-11-23T00:44:26.645Z,5.00
2022-11-23T00:46:53.413Z,3.00
2022-11-23T00:49:20.315Z,4.00
2022-11-23T00:51:48.663Z,6.00
2022-11-23T00:54:15.671Z,4.00
2022-11-23T00:56:42.489Z,3.25
2022-11-23T00:59:09.705Z,3.00
2022-11-23T01:01:38.337Z,5.00
2022-11-23T01:04:08.687Z,4.00
2022-11-23T01:06:38.817Z,6.50
2022-11-23T01:09:13.001Z,8.00
2022-11-23T01:11:40.766Z,5.00
2022-11-23T01:14:07.689Z,4.00
2022-11-23T01:16:38.211Z,4.00
2022-11-23T01:19:08.728Z,4.25
2022-11-23T01:21:36.956Z,5.25
2022-11-23T01:24:10.170Z,3.50
2022-11-23T01:26:39.889Z,5.00
2022-11-23T01:29:06.926Z,3.75
2022-11-23T01:31:33.818Z,7.25
2022-11-23T01:34:03.159Z,3.25
2022-11-23T01:36:33.988Z,2.00
2022-11-23T01:39:03.636Z,4.25
2022-11-23T01:41:35.612Z,3.00
2022-11-23T01:44:25.844Z,3.00
2022-11-23T01:46:59.399Z,3.75
2022-11-23T01:49:33.471Z,2.25
2022-11-23T01:52:08.371Z,5.00
2022-11-23T01:54:43.759Z,4.00
2022-11-23T01:57:19.166Z,4.75
2022-11-23T01:59:48.107Z,4.00
2022-11-23T02:02:17.092Z,5.00
2022-11-23T02:04:48.471Z,3.25
2022-11-23T02:07:17.296Z,5.25
2022-11-23T02:09:46.587Z,3.50
2022-11-23T02:12:15.159Z,2.75
2022-11-23T02:14:45.584Z,4.75
2022-11-23T02:17:13.464Z,2.75
2022-11-23T02:20:03.703Z,2.25
2022-11-23T02:22:43.707Z,2.25
2022-11-23T02:25:25.363Z,2.00
2022-11-23T02:27:54.942Z,2.00
2022-11-23T02:30:21.853Z,6.50
2022-11-23T02:32:52.148Z,2.50
2022-11-23T02:35:19.204Z,3.25
2022-11-23T02:37:46.317Z,3.75
2022-11-23T02:40:26.920Z,6.00
2022-11-23T02:42:55.537Z,3.00
2022-11-23T02:45:35.894Z,2.25
2022-11-23T02:48:03.730Z,1.00
2022-11-23T02:50:31.208Z,3.75
2022-11-23T02:53:00.480Z,3.75
2022-11-23T02:55:27.449Z,3.00
2022-11-23T02:57:55.849Z,3.00
2022-11-23T03:00:22.658Z,4.50
2022-11-23T03:02:49.707Z,5.25
2022-11-23T03:05:16.933Z,1.75
2022-11-23T03:07:43.804Z,3.75
2022-11-23T03:10:13.277Z,2.25
2022-11-23T03:12:40.705Z,3.00
2022-11-23T03:15:10.937Z,3.50
2022-11-23T03:17:40.940Z,3.75
2022-11-23T03:20:11.776Z,4.75
2022-11-23T03:22:42.511Z,3.50
2022-11-23T03:25:10.506Z,2.00
2022-11-23T03:27:39.223Z,2.50
2022-11-23T03:30:09.982Z,2.25
2022-11-23T03:32:37.820Z,2.00
2022-11-23T03:35:06.984Z,2.25
2022-11-23T03:37:36.776Z,2.50
2022-11-23T03:40:04.459Z,3.25
2022-11-23T03:42:57.390Z,4.00
2022-11-23T03:45:25.759Z,4.00
2022-11-23T03:47:52.979Z,3.50
2022-11-23T03:50:20.379Z,4.50
2022-11-23T03:52:49.853Z,5.00
2022-11-23T03:55:17.260Z,2.25
2022-11-23T03:57:44.099Z,3.00
2022-11-23T04:00:12.409Z,2.50
2022-11-23T04:02:43.761Z,3.00
2022-11-23T04:05:30.599Z,4.75
2022-11-23T04:08:16.308Z,1.00
2022-11-23T04:10:43.201Z,5.00
2022-11-23T04:13:16.414Z,3.50
2022-11-23T04:15:43.296Z,4.25
2022-11-23T04:18:12.008Z,2.00
2022-11-23T04:20:39.890Z,4.00
2022-11-23T04:23:12.852Z,2.00
2022-11-23T04:25:41.172Z,2.00
2022-11-23T04:28:08.712Z,4.00
2022-11-23T04:30:35.642Z,2.50
2022-11-23T04:33:03.103Z,3.75
2022-11-23T04:35:32.099Z,3.50
2022-11-23T04:37:59.110Z,3.75
2022-11-23T04:40:28.154Z,2.00
2022-11-23T04:43:01.636Z,6.00
2022-11-23T04:45:32.668Z,0.00
2022-11-23T04:48:05.248Z,2.75
2022-11-23T04:50:34.937Z,2.50
2022-11-23T04:53:02.830Z,3.00
2022-11-23T04:55:37.642Z,3.50
2022-11-23T04:58:04.921Z,3.50
2022-11-23T05:00:35.000Z,3.00
2022-11-23T05:03:04.306Z,3.25
2022-11-23T05:05:38.147Z,3.25
2022-11-23T05:08:07.406Z,5.00
2022-11-23T05:10:49.388Z,3.75
2022-11-23T05:13:16.540Z,2.00
2022-11-23T05:15:44.521Z,3.75
2022-11-23T05:18:14.692Z,1.75
2022-11-23T05:20:43.069Z,3.50
2022-11-23T05:23:11.453Z,1.00
2022-11-23T05:25:41.556Z,3.75
2022-11-23T05:28:38.926Z,5.00
2022-11-23T05:31:05.598Z,3.25
2022-11-23T05:33:32.874Z,2.75
2022-11-23T05:36:02.539Z,2.50
2022-11-23T05:38:36.482Z,3.50
2022-11-23T05:41:08.311Z,5.00
2022-11-23T05:43:37.310Z,4.75
2022-11-23T05:46:04.448Z,4.75
2022-11-23T05:48:34.762Z,4.25
2022-11-23T05:51:09.881Z,3.00
2022-11-23T05:53:41.952Z,3.00
2022-11-23T05:56:37.134Z,3.00
2022-11-23T05:59:12.481Z,3.00
2022-11-23T06:01:42.507Z,4.00
2022-11-23T06:04:11.914Z,2.00
2022-11-23T06:06:45.278Z,2.50
2022-11-23T06:09:12.375Z,3.00
2022-11-23T06:11:43.181Z,5.00
2022-11-23T06:14:14.622Z,7.00
2022-11-23T06:16:44.691Z,2.50
2022-11-23T06:19:34.997Z,3.25
2022-11-23T06:22:05.896Z,4.00
2022-11-23T06:24:37.680Z,4.25
2022-11-23T06:27:40.346Z,2.25
2022-11-23T06:30:17.289Z,3.75
2022-11-23T06:32:44.939Z,6.00
2022-11-23T06:35:11.907Z,4.50
2022-11-23T06:37:42.720Z,5.75
2022-11-23T06:40:12.069Z,3.00
2022-11-23T06:42:40.498Z,5.50
2022-11-23T06:45:30.608Z,3.00
2022-11-23T06:48:01.649Z,5.00
2022-11-23T06:50:29.176Z,4.00
2022-11-23T06:52:58.485Z,3.00
2022-11-23T06:55:44.039Z,3.25
2022-11-23T06:58:14.004Z,5.00
2022-11-23T07:00:40.842Z,4.00
2022-11-23T07:03:20.634Z,2.75
2022-11-23T07:05:50.792Z,3.25
2022-11-23T07:08:22.191Z,5.75
2022-11-23T07:10:49.282Z,2.25
2022-11-23T07:13:17.530Z,3.75
2022-11-23T07:15:45.358Z,1.25
2022-11-23T07:18:14.764Z,2.75
2022-11-23T07:20:48.858Z,13.50
2022-11-23T07:23:15.934Z,6.50
2022-11-23T07:25:44.164Z,10.25
2022-11-23T07:28:13.096Z,6.75
2022-11-23T07:30:40.313Z,5.25
2022-11-23T07:33:11.655Z,2.25
2022-11-23T07:35:40.962Z,5.25
2022-11-23T07:38:09.285Z,2.75
2022-11-23T07:40:38.236Z,4.25
2022-11-23T07:43:08.639Z,4.50
2022-11-23T07:45:36.063Z,3.75
2022-11-23T07:48:09.580Z,6.00
2022-11-23T07:50:39.027Z,4.00
2022-11-23T07:53:07.359Z,2.00
2022-11-23T07:55:35.054Z,3.00
2022-11-23T07:58:02.083Z,2.50
2022-11-23T08:00:30.615Z,4.25
2022-11-23T08:03:26.196Z,3.50
2022-11-23T08:05:45.092Z,8.50
2022-11-23T08:08:12.020Z,16.50
2022-11-23T08:10:45.050Z,11.50
2022-11-23T08:13:13.319Z,21.00
2022-11-23T08:15:41.479Z,16.00
2022-11-23T08:18:09.879Z,7.75
2022-11-23T08:20:36.750Z,6.25
2022-11-23T08:23:03.868Z,8.75
2022-11-23T08:25:31.120Z,13.25
2022-11-23T08:28:00.669Z,11.50
2022-11-23T08:30:30.294Z,17.25
2022-11-23T08:32:59.623Z,10.50
2022-11-23T08:35:26.557Z,6.50
2022-11-23T08:37:53.304Z,6.00
2022-11-23T08:40:25.036Z,3.25
2022-11-23T08:42:52.691Z,2.00
2022-11-23T08:45:20.405Z,4.00
2022-11-23T08:47:49.333Z,2.00
2022-11-23T08:50:17.912Z,2.25
2022-11-23T08:52:44.921Z,2.25
2022-11-23T08:55:12.311Z,3.00
2022-11-23T08:57:39.535Z,3.50
2022-11-23T09:00:08.595Z,3.00
2022-11-23T09:02:35.831Z,3.00
2022-11-23T09:05:03.069Z,3.00
2022-11-23T09:07:32.352Z,5.75
2022-11-23T09:09:59.423Z,2.00
2022-11-23T09:12:26.261Z,4.00
2022-11-23T09:14:53.547Z,11.25
2022-11-23T09:17:20.299Z,3.00
2022-11-23T09:19:48.784Z,3.00
2022-11-23T09:22:15.728Z,2.75
2022-11-23T09:24:43.902Z,1.75
2022-11-23T09:27:11.123Z,3.00
2022-11-23T09:29:38.189Z,2.00
2022-11-23T09:32:05.311Z,2.00
2022-11-23T09:34:32.454Z,1.00
2022-11-23T09:36:59.614Z,1.00
2022-11-23T09:39:26.549Z,1.50
2022-11-23T09:42:45.488Z,3.75
2022-11-23T09:45:25.989Z,1.25
2022-11-23T09:48:34.735Z,1.75
2022-11-23T09:51:14.485Z,1.75
2022-11-23T09:53:49.965Z,2.75
2022-11-23T09:56:21.260Z,2.00
2022-11-23T09:58:55.545Z,4.75
2022-11-23T10:01:22.630Z,2.50
2022-11-23T10:03:50.575Z,2.00
2022-11-23T10:06:21.800Z,2.25
2022-11-23T10:09:16.984Z,3.25
2022-11-23T10:12:23.593Z,4.00
2022-11-23T10:15:03.827Z,1.00
2022-11-23T10:18:02.874Z,1.25
2022-11-23T10:20:55.156Z,3.00
2022-11-23T10:23:48.800Z,2.50
2022-11-23T10:26:19.316Z,1.75
2022-11-23T10:28:47.912Z,5.00
2022-11-23T10:31:19.417Z,2.25
2022-11-23T10:33:59.445Z,1.50
2022-11-23T10:36:26.344Z,3.00
2022-11-23T10:39:00.034Z,0.75
2022-11-23T10:41:43.731Z,2.25
2022-11-23T10:44:35.247Z,0.75
2022-11-23T10:47:05.189Z,3.00
2022-11-23T10:49:35.993Z,2.00
2022-11-23T10:52:05.903Z,2.00
2022-11-23T10:54:38.664Z,4.50
2022-11-23T10:57:28.510Z,3.25
2022-11-23T11:00:01.778Z,2.25
2022-11-23T11:02:39.587Z,4.00
2022-11-23T11:05:40.167Z,1.50
2022-11-23T11:08:16.327Z,1.25
2022-11-23T11:10:46.629Z,1.75
2022-11-23T11:13:27.374Z,1.50
2022-11-23T11:15:57.979Z,1.50
2022-11-23T11:18:32.778Z,1.50
2022-11-23T11:21:06.597Z,1.50
2022-11-23T11:23:40.608Z,2.25
2022-11-23T11:26:18.908Z,2.00
2022-11-23T11:28:51.423Z,2.00
2022-11-23T11:31:37.768Z,3.00
2022-11-23T11:34:21.305Z,2.75
2022-11-23T11:37:00.629Z,5.75
2022-11-23T11:39:38.339Z,4.00
2022-11-23T11:42:15.954Z,2.00
2022-11-23T11:44:46.716Z,4.00
2022-11-23T11:47:31.037Z,7.00
2022-11-23T11:50:07.588Z,4.00
2022-11-23T11:52:40.583Z,5.75
2022-11-23T11:55:20.023Z,4.50
2022-11-23T11:57:54.663Z,3.50
2022-11-23T12:00:22.115Z,3.00
2022-11-23T12:03:10.462Z,1.25
2022-11-23T12:05:48.307Z,5.00
2022-11-23T12:08:24.622Z,5.25
2022-11-23T12:10:55.274Z,3.75
2022-11-23T12:13:25.866Z,0.75
2022-11-23T12:16:09.605Z,3.25
2022-11-23T12:19:19.553Z,1.50
2022-11-23T12:22:32.662Z,1.00
2022-11-23T12:25:24.505Z,2.00
2022-11-23T12:28:23.927Z,2.50
2022-11-23T12:31:08.875Z,3.00
2022-11-23T12:34:06.997Z,0.75
2022-11-23T12:37:07.848Z,1.25
2022-11-23T12:40:19.978Z,0.00
2022-11-23T12:42:51.066Z,7.50
2022-11-23T12:45:29.587Z,2.00
2022-11-23T12:48:18.332Z,2.67
2022-11-23T12:50:57.997Z,2.00
2022-11-23T12:54:09.523Z,1.00
2022-11-23T12:56:59.372Z,2.25
2022-11-23T12:59:39.974Z,2.00
2022-11-23T13:02:43.614Z,1.00
2022-11-23T13:05:48.008Z,1.00
2022-11-23T13:08:50.276Z,1.25
2022-11-23T13:11:39.483Z,2.00
2022-11-23T13:14:26.470Z,0.25
2022-11-23T13:17:09.012Z,4.00
2022-11-23T13:20:12.765Z,2.00
2022-11-23T13:22:42.486Z,2.75
2022-11-23T13:25:24.570Z,2.00
2022-11-23T13:28:28.627Z,1.00
2022-11-23T13:31:34.057Z,0.25
2022-11-23T13:34:24.260Z,2.50
2022-11-23T13:37:17.080Z,1.50
2022-11-23T13:40:04.329Z,0.50
2022-11-23T13:42:34.263Z,2.00
2022-11-23T13:45:28.860Z,2.00
2022-11-23T13:48:54.903Z,1.25
2022-11-23T13:51:09.244Z,1.00
2022-11-23T13:53:40.739Z,0.00
2022-11-23T13:56:32.724Z,0.00
2022-11-23T13:59:28.462Z,0.00
2022-11-23T14:02:29.811Z,0.00
2022-11-23T14:05:55.049Z,1.00
2022-11-23T14:08:25.087Z,2.00
2022-11-23T14:10:54.228Z,0.00
2022-11-23T14:13:28.384Z,1.00
2022-11-23T14:16:01.392Z,1.00
2022-11-23T14:19:01.059Z,0.75
2022-11-23T14:21:42.542Z,0.00
2022-11-23T14:24:54.846Z,3.00
2022-11-23T14:27:48.186Z,0.00
2022-11-23T14:30:43.192Z,1.75
2022-11-23T14:33:27.099Z,0.00
2022-11-23T14:36:12.114Z,0.00
2022-11-23T14:39:26.917Z,0.00
2022-11-23T14:42:01.473Z,0.00
2022-11-23T14:44:35.549Z,1.00
2022-11-23T14:47:06.788Z,0.00
2022-11-23T14:49:34.900Z,0.00
2022-11-23T14:52:05.376Z,0.00
2022-11-23T14:54:35.377Z,0.75
2022-11-23T14:57:04.861Z,0.00
2022-11-23T14:59:37.513Z,0.75
2022-11-23T15:02:15.015Z,0.50
2022-11-23T15:05:00.068Z,0.75
2022-11-23T15:07:42.914Z,0.25
2022-11-23T15:10:30.597Z,0.00
2022-11-23T15:12:57.995Z,1.00
2022-11-23T15:15:27.732Z,0.00
2022-11-23T15:17:56.907Z,1.00
2022-11-23T15:20:29.750Z,1.00
2022-11-23T15:22:56.905Z,1.00
2022-11-23T15:25:27.632Z,2.00
2022-11-23T15:27:55.050Z,0.25
2022-11-23T15:30:27.632Z,2.00
2022-11-23T15:32:56.997Z,3.00
2022-11-23T15:35:31.735Z,0.00
2022-11-23T15:38:01.313Z,3.75
2022-11-23T15:40:35.590Z,2.00
2022-11-23T15:43:03.561Z,1.00
2022-11-23T15:45:55.760Z,0.00
2022-11-23T15:48:28.322Z,1.00
2022-11-23T15:50:58.274Z,1.25
2022-11-23T15:53:28.579Z,2.00
2022-11-23T15:56:02.507Z,1.00
2022-11-23T15:58:31.700Z,1.00
2022-11-23T16:01:11.077Z,0.00
2022-11-23T16:03:47.762Z,1.75
2022-11-23T16:06:24.344Z,4.00
2022-11-23T16:08:51.549Z,1.50
2022-11-23T16:11:27.927Z,2.00
2022-11-23T16:14:16.437Z,1.00
2022-11-23T16:16:46.622Z,1.25
2022-11-23T16:19:26.690Z,1.00
2022-11-23T16:22:02.469Z,1.50
2022-11-23T16:24:35.226Z,4.75
2022-11-23T16:27:13.608Z,2.75
2022-11-23T16:29:41.949Z,3.00
2022-11-23T16:32:23.856Z,2.00
2022-11-23T16:34:51.511Z,3.00
2022-11-23T16:37:18.661Z,3.25
2022-11-23T16:39:46.054Z,2.00
2022-11-23T16:42:15.793Z,2.50
2022-11-23T16:44:43.733Z,2.75
2022-11-23T16:47:22.197Z,13.50
2022-11-23T16:49:50.556Z,7.25
2022-11-23T16:52:17.928Z,0.00
2022-11-23T16:54:45.556Z,6.00
2022-11-23T16:57:29.879Z,6.00
2022-11-23T17:00:01.573Z,5.00
2022-11-23T17:02:28.727Z,8.25
2022-11-23T17:04:55.697Z,4.50
2022-11-23T17:07:23.189Z,3.25
2022-11-23T17:09:50.075Z,3.25
2022-11-23T17:12:20.551Z,4.75
2022-11-23T17:14:50.195Z,2.50
2022-11-23T17:17:21.267Z,3.00
2022-11-23T17:19:50.354Z,2.50
2022-11-23T17:22:19.343Z,6.00
2022-11-23T17:24:48.014Z,9.00
2022-11-23T17:27:21.736Z,4.00
2022-11-23T17:29:55.888Z,8.75
2022-11-23T17:32:22.979Z,2.75
2022-11-23T17:34:50.067Z,3.00
2022-11-23T17:37:20.933Z,4.50
2022-11-23T17:39:49.988Z,7.00
2022-11-23T17:42:18.247Z,8.50
2022-11-23T17:44:45.120Z,6.50
2022-11-23T17:47:25.264Z,10.00
2022-11-23T17:49:53.430Z,5.50
2022-11-23T17:52:21.452Z,7.25
2022-11-23T17:54:48.448Z,6.25
2022-11-23T17:57:19.400Z,6.25
2022-11-23T17:59:46.413Z,5.75
2022-11-23T18:02:13.261Z,4.75
2022-11-23T18:04:40.115Z,7.00
2022-11-23T18:07:07.316Z,4.75
2022-11-23T18:09:34.651Z,15.50
2022-11-23T18:12:02.106Z,6.25
2022-11-23T18:14:30.515Z,7.75
2022-11-23T18:16:57.408Z,3.25
2022-11-23T18:19:24.461Z,7.50
2022-11-23T18:21:51.598Z,8.25
2022-11-23T18:24:18.507Z,15.25
2022-11-23T18:26:45.364Z,17.50
2022-11-23T18:29:16.838Z,9.75
2022-11-23T18:31:45.680Z,6.50
2022-11-23T18:34:12.621Z,6.50
2022-11-23T18:36:39.410Z,7.25
2022-11-23T18:39:06.709Z,3.75
2022-11-23T18:41:34.045Z,4.75
2022-11-23T18:44:01.381Z,8.00
2022-11-23T18:46:28.307Z,6.00
2022-11-23T18:48:57.644Z,3.75
2022-11-23T18:51:25.010Z,7.00
2022-11-23T18:53:52.102Z,7.00
2022-11-23T18:56:18.949Z,7.75
2022-11-23T18:58:45.843Z,6.50
2022-11-23T19:01:15.561Z,4.00
2022-11-23T19:03:42.492Z,2.25
2022-11-23T19:06:13.111Z,3.75
2022-11-23T19:08:43.473Z,5.25
2022-11-23T19:11:16.797Z,4.75
2022-11-23T19:13:45.187Z,2.50
2022-11-23T19:16:16.112Z,4.25
2022-11-23T19:18:44.143Z,5.00
2022-11-23T19:21:18.600Z,4.25
2022-11-23T19:23:50.141Z,4.00
2022-11-23T19:26:18.455Z,5.50
2022-11-23T19:28:45.655Z,4.00
2022-11-23T19:31:15.679Z,7.00
2022-11-23T19:33:43.745Z,4.50
2022-11-23T19:36:14.611Z,6.50
2022-11-23T19:38:43.758Z,8.25
2022-11-23T19:41:11.230Z,10.00
2022-11-23T19:43:38.584Z,16.75
2022-11-23T19:46:09.341Z,17.00
2022-11-23T19:48:36.571Z,16.75
2022-11-23T19:51:06.416Z,19.50
2022-11-23T19:53:36.239Z,17.75
2022-11-23T19:56:07.601Z,14.25
2022-11-23T19:58:35.068Z,12.25
2022-11-23T20:01:05.223Z,13.75
2022-11-23T20:03:35.272Z,13.00
2022-11-23T20:06:05.761Z,16.00
2022-11-23T20:08:33.279Z,18.75
2022-11-23T20:11:06.221Z,14.25
2022-11-23T20:13:34.221Z,12.75
2022-11-23T20:16:03.426Z,12.00
2022-11-23T20:18:30.470Z,14.00
2022-11-23T20:20:58.317Z,21.00
2022-11-23T20:23:25.892Z,23.50
2022-11-23T20:25:56.409Z,31.00
2022-11-23T20:28:25.829Z,22.75
2022-11-23T20:30:52.763Z,18.25
2022-11-23T20:33:20.049Z,11.25
2022-11-23T20:35:46.977Z,10.50
2022-11-23T20:38:13.855Z,9.75
2022-11-23T20:40:40.958Z,15.50
2022-11-23T20:43:07.758Z,11.50
2022-11-23T20:45:36.314Z,10.00
2022-11-23T20:48:03.297Z,13.75
2022-11-23T20:50:30.143Z,6.50
2022-11-23T20:53:01.559Z,10.00
2022-11-23T20:55:31.095Z,9.25
2022-11-23T20:57:58.134Z,5.50
2022-11-23T21:00:25.567Z,7.25
2022-11-23T21:02:55.085Z,10.00
2022-11-23T21:05:22.291Z,7.75
2022-11-23T21:07:49.311Z,6.50
2022-11-23T21:10:16.814Z,9.00
2022-11-23T21:12:49.075Z,9.00
2022-11-23T21:15:17.339Z,7.50
2022-11-23T21:17:44.198Z,4.00
2022-11-23T21:20:12.846Z,6.75
2022-11-23T21:22:41.264Z,6.00
2022-11-23T21:25:08.801Z,3.75
2022-11-23T21:27:36.538Z,2.25
2022-11-23T21:34:19.397Z,3.00
2022-11-23T21:36:48.810Z,4.75
2022-11-23T21:39:17.497Z,3.00
2022-11-23T21:41:46.146Z,2.50
2022-11-23T21:44:13.338Z,2.00
2022-11-23T21:46:41.736Z,2.00
2022-11-23T21:49:09.989Z,3.00
2022-11-23T21:51:38.465Z,2.75
2022-11-23T21:54:08.773Z,4.00
2022-11-23T21:56:35.723Z,3.00
2022-11-23T21:59:02.583Z,4.00
2022-11-23T22:01:32.357Z,4.50
2022-11-23T22:04:03.843Z,2.50
2022-11-23T22:06:31.585Z,2.50
2022-11-23T22:08:59.254Z,2.50
2022-11-23T22:11:30.566Z,2.00
2022-11-23T22:14:00.204Z,3.75
2022-11-23T22:16:30.544Z,3.00
2022-11-23T22:18:59.057Z,3.00
2022-11-23T22:21:28.925Z,2.75
2022-11-23T22:23:56.116Z,3.75
2022-11-23T22:26:23.016Z,2.75
2022-11-23T22:28:52.243Z,5.00
2022-11-23T22:31:22.949Z,4.25
2022-11-23T22:33:52.187Z,5.25
2022-11-23T22:36:22.077Z,5.25
2022-11-23T22:38:59.720Z,5.75
2022-11-23T22:41:30.300Z,7.00
2022-11-23T22:43:58.637Z,8.00
2022-11-23T22:46:26.687Z,5.00
2022-11-23T22:48:54.223Z,7.25
2022-11-23T22:51:23.218Z,2.25
2022-11-23T22:53:53.616Z,2.25
2022-11-23T22:56:21.372Z,2.50
2022-11-23T22:58:49.186Z,3.50
2022-11-23T23:01:19.720Z,2.75
2022-11-23T23:03:47.393Z,5.50
2022-11-23T23:06:17.292Z,5.75
2022-11-23T23:08:44.831Z,5.00
2022-11-23T23:11:12.789Z,2.00
2022-11-23T23:13:40.140Z,4.50
2022-11-23T23:16:10.761Z,4.50
2022-11-23T23:18:39.350Z,4.25
2022-11-23T23:21:09.331Z,5.50
2022-11-23T23:23:36.996Z,2.75
2022-11-23T23:26:04.588Z,3.25
2022-11-23T23:28:31.600Z,4.50
2022-11-23T23:31:02.702Z,3.75
2022-11-23T23:33:30.856Z,2.50
2022-11-23T23:36:04.174Z,2.25
2022-11-23T23:38:31.399Z,6.25
2022-11-23T23:40:58.996Z,3.00
2022-11-23T23:43:27.534Z,2.00
2022-11-23T23:45:57.732Z,4.00
2022-11-23T23:48:28.047Z,0.50
2022-11-23T23:50:55.333Z,1.50
2022-11-23T23:53:24.220Z,2.00
2022-11-23T23:55:57.705Z,5.00
2022-11-23T23:58:25.018Z,2.75
